Time;durP1;ratioP1;P1;durP2;ratioP2;P2;SDS_P1;SDS_P2;PMS_P1;PMS_P2;Temp;Humidity;BMP_temperature;BMP_pressure;BME280_temperature;BME280_humidity;BME280_pressure;Samples;Min_cycle;Max_cycle;Signal;HPM_P1;HPM_P2
2022/10/04 04:22:58;;;;;;;7.45;3.58;;;;;;;5.34;100.00;100879.84;5109140;27;20335;-67
2022/10/04 04:25:24;;;;;;;7.15;3.72;;;;;;;5.33;100.00;100881.63;5109069;28;20059;-67
2022/10/04 04:27:58;;;;;;;7.57;3.90;;;;;;;5.36;100.00;100886.69;5109083;28;20434;-66
2022/10/04 04:30:24;;;;;;;6.88;3.47;;;;;;;5.44;100.00;100886.06;5108840;28;20054;-65
2022/10/04 04:32:53;;;;;;;8.25;4.22;;;;;;;5.41;100.00;100883.66;5109176;28;20484;-65
2022/10/04 04:35:39;;;;;;;6.78;4.10;;;;;;;5.41;100.00;100883.66;5113653;22;20102;-59
2022/10/04 04:38:13;;;;;;;7.40;3.30;;;;;;;5.42;100.00;100874.78;5088865;28;20032;-61
2022/10/04 04:40:39;;;;;;;8.25;3.63;;;;;;;5.33;100.00;100878.16;5088338;28;20075;-59
2022/10/04 04:43:04;;;;;;;6.65;4.45;;;;;;;5.23;100.00;100872.78;5088891;28;20039;-60
2022/10/04 04:45:32;;;;;;;9.38;4.40;;;;;;;5.25;100.00;100880.59;5101815;28;20031;-61
2022/10/04 04:48:00;;;;;;;6.82;3.30;;;;;;;5.30;100.00;100881.91;5109149;28;20037;-61
2022/10/04 04:50:36;;;;;;;;;;;;;;;5.35;100.00;100881.53;5109209;28;20084;-61
2022/10/04 04:53:16;;;;;;;6.18;3.33;;;;;;;5.15;100.00;100881.34;5108959;28;19919;-62
2022/10/04 04:55:46;;;;;;;4.32;3.20;;;;;;;5.16;100.00;100883.00;5108888;28;20051;-60
2022/10/04 04:58:25;;;;;;;8.13;3.88;;;;;;;5.09;100.00;100879.19;5109044;28;20036;-60
2022/10/04 05:00:58;;;;;;;4.75;3.33;;;;;;;5.17;100.00;100881.22;5108506;28;20036;-61
2022/10/04 05:03:24;;;;;;;14.38;4.13;;;;;;;5.21;100.00;100885.25;5108678;28;20035;-61
2022/10/04 05:05:51;;;;;;;11.73;3.63;;;;;;;5.16;100.00;100883.00;5108692;28;20031;-61
2022/10/04 05:08:34;;;;;;;8.75;3.67;;;;;;;5.21;100.00;100881.78;5108682;28;20024;-59
2022/10/04 05:11:05;;;;;;;7.80;3.70;;;;;;;5.26;100.00;100891.03;5108344;28;20044;-61
2022/10/04 05:13:42;;;;;;;6.88;3.00;;;;;;;5.25;100.00;100893.78;5108590;28;20063;-61
2022/10/04 05:16:17;;;;;;;8.73;3.63;;;;;;;5.15;100.00;100886.63;5108724;28;20041;-61
2022/10/04 05:18:44;;;;;;;13.68;3.95;;;;;;;5.16;100.00;100898.84;5108498;28;20511;-61
2022/10/04 05:21:26;;;;;;;7.30;3.63;;;;;;;5.19;100.00;100905.69;5108107;28;20105;-61
2022/10/04 05:23:52;;;;;;;5.63;3.45;;;;;;;5.18;100.00;100902.22;5108323;28;20043;-61
2022/10/04 05:26:29;;;;;;;7.28;3.20;;;;;;;5.07;100.00;100904.84;5108265;28;20023;-61
2022/10/04 05:29:06;;;;;;;5.40;2.78;;;;;;;5.08;100.00;100906.53;5108502;28;20040;-57
2022/10/04 05:31:54;;;;;;;8.52;3.75;;;;;;;5.06;100.00;100911.09;5107884;28;20035;-59
2022/10/04 05:34:26;;;;;;;6.00;3.25;;;;;;;5.06;100.00;100905.81;5093906;28;20166;-59
2022/10/04 05:37:01;;;;;;;6.20;3.53;;;;;;;5.10;100.00;100909.91;5093409;28;20044;-58
2022/10/04 05:39:33;;;;;;;7.95;3.78;;;;;;;5.13;100.00;100912.28;5094642;28;20043;-60
2022/10/04 05:42:18;;;;;;;8.13;4.55;;;;;;;5.15;100.00;100918.31;5094582;28;20365;-61
2022/10/04 05:44:57;;;;;;;9.68;3.83;;;;;;;5.14;100.00;100916.59;5094299;28;20044;-61
2022/10/04 05:47:27;;;;;;;4.78;3.15;;;;;;;5.14;100.00;100915.78;5094269;28;20043;-60
2022/10/04 05:49:56;;;;;;;6.40;3.25;;;;;;;5.17;100.00;100921.66;5094273;28;20040;-61
2022/10/04 05:52:32;;;;;;;6.72;3.90;;;;;;;5.16;100.00;100922.63;5093926;28;20059;-62
2022/10/04 05:55:31;;;;;;;8.38;3.20;;;;;;;5.18;100.00;100923.34;5094170;28;20032;-61
2022/10/04 05:58:17;;;;;;;5.95;3.20;;;;;;;5.23;100.00;100925.63;5094218;28;20546;-62
2022/10/04 06:00:54;;;;;;;13.77;3.38;;;;;;;5.24;100.00;100921.19;5093758;28;20396;-61
2022/10/04 06:03:34;;;;;;;8.50;4.18;;;;;;;5.28;100.00;100919.94;5093831;28;20032;-59
2022/10/04 06:06:05;;;;;;;5.57;3.15;;;;;;;5.27;100.00;100913.00;5092557;28;20039;-61
2022/10/04 06:08:59;;;;;;;6.20;3.83;;;;;;;5.28;100.00;100912.91;5094249;28;20439;-61
2022/10/04 06:11:43;;;;;;;8.55;4.10;;;;;;;5.34;100.00;100900.97;5093463;28;20032;-60
2022/10/04 06:14:33;;;;;;;6.32;3.60;;;;;;;5.43;100.00;100905.53;5093792;28;20096;-61
2022/10/04 06:17:13;;;;;;;5.55;4.20;;;;;;;5.57;100.00;100912.34;5093724;28;20032;-60
2022/10/04 06:20:24;;;;;;;9.57;3.90;;;;;;;5.68;100.00;100907.84;5093766;28;20043;-61
2022/10/04 06:22:58;;;;;;;7.72;4.03;;;;;;;5.70;100.00;100900.63;5093808;28;20485;-61
2022/10/04 06:25:41;;;;;;;5.63;3.47;;;;;;;5.79;100.00;100888.44;5093729;28;20044;-61
2022/10/04 06:28:27;;;;;;;6.35;3.55;;;;;;;5.82;100.00;100893.50;5093856;28;20105;-61
2022/10/04 06:31:24;;;;;;;10.05;4.07;;;;;;;5.80;100.00;100884.00;5093221;28;20032;-61
2022/10/04 06:33:53;;;;;;;;;;;;;;;5.87;100.00;100893.13;5094262;28;20114;-58
2022/10/04 06:36:21;;;;;;;6.95;3.58;;;;;;;5.94;100.00;100894.31;5093419;28;20315;-55
2022/10/04 06:39:08;;;;;;;9.55;4.22;;;;;;;6.02;100.00;100897.16;5093411;28;20115;-52
2022/10/04 06:41:42;;;;;;;9.93;4.00;;;;;;;6.09;100.00;100894.84;5093220;28;20111;-58
2022/10/04 06:44:35;;;;;;;7.18;3.90;;;;;;;6.18;100.00;100897.53;5092497;28;20032;-59
2022/10/04 06:47:25;;;;;;;11.25;4.15;;;;;;;6.25;100.00;100905.78;5093280;28;20036;-60
2022/10/04 06:50:05;;;;;;;12.63;4.47;;;;;;;6.34;100.00;100897.09;5093342;28;20479;-61
2022/10/04 06:53:05;;;;;;;7.63;4.35;;;;;;;6.44;100.00;100905.91;5093090;28;20032;-60
2022/10/04 06:55:55;;;;;;;11.63;5.65;;;;;;;6.54;100.00;100903.34;5093184;28;20036;-59
2022/10/04 06:58:44;;;;;;;7.00;3.53;;;;;;;6.57;100.00;100904.88;5093108;28;20464;-60
2022/10/04 07:01:31;;;;;;;9.50;4.20;;;;;;;6.60;100.00;100904.63;5092778;28;20047;-59
2022/10/04 07:04:00;;;;;;;;;;;;;;;6.66;100.00;100926.13;5093551;28;20047;-61
2022/10/04 07:06:32;;;;;;;6.55;3.60;;;;;;;6.73;100.00;100932.56;5092958;28;19919;-60
2022/10/04 07:09:02;;;;;;;8.57;3.47;;;;;;;6.78;100.00;100933.00;5092984;28;20071;-62
2022/10/04 07:11:45;;;;;;;9.55;4.57;;;;;;;6.83;100.00;100926.47;5092423;28;20047;-61
2022/10/04 07:14:13;;;;;;;8.90;4.20;;;;;;;6.88;100.00;100940.16;5092752;28;20036;-61
2022/10/04 07:16:58;;;;;;;9.68;4.78;;;;;;;6.93;100.00;100937.94;5092760;28;20378;-63
2022/10/04 07:19:35;;;;;;;7.70;4.00;;;;;;;7.01;100.00;100948.72;5092827;28;20032;-64
2022/10/04 07:22:06;;;;;;;8.40;5.40;;;;;;;7.06;100.00;100942.06;5092475;28;20051;-64
2022/10/04 07:24:37;;;;;;;9.23;4.68;;;;;;;7.09;100.00;100940.94;5092842;28;20115;-63
2022/10/04 07:27:08;;;;;;;10.82;4.18;;;;;;;7.10;100.00;100937.31;5092490;28;20349;-63
2022/10/04 07:29:38;;;;;;;9.90;4.80;;;;;;;7.17;100.00;100941.13;5092697;28;20040;-62
2022/10/04 07:32:04;;;;;;;13.75;5.82;;;;;;;7.26;100.00;100944.75;5092068;28;20038;-64
2022/10/04 07:34:35;;;;;;;34.25;14.02;;;;;;;7.34;100.00;100943.09;5092184;28;20055;-64
2022/10/04 07:37:09;;;;;;;15.07;6.85;;;;;;;7.43;100.00;100937.97;5092357;28;20063;-61
2022/10/04 07:39:51;;;;;;;13.60;5.95;;;;;;;7.44;100.00;100956.41;5092402;28;20032;-63
2022/10/04 07:42:42;;;;;;;8.80;4.80;;;;;;;7.56;100.00;100941.19;5092059;28;20043;-62
2022/10/04 07:45:22;;;;;;;9.55;4.55;;;;;;;7.68;100.00;100950.72;5090783;28;20040;-63
2022/10/04 07:47:48;;;;;;;10.93;5.22;;;;;;;7.75;100.00;100943.88;5092130;28;20093;-63
2022/10/04 07:50:30;;;;;;;8.80;5.43;;;;;;;7.80;100.00;100949.63;5091848;28;20055;-59
2022/10/04 07:53:09;;;;;;;9.60;5.28;;;;;;;7.85;100.00;100949.19;5092243;28;20509;-61
2022/10/04 07:56:01;;;;;;;9.57;5.05;;;;;;;7.94;100.00;100947.53;5092101;28;20629;-61
2022/10/04 07:59:00;;;;;;;10.13;5.47;;;;;;;8.02;100.00;100943.22;5092041;28;20119;-61
2022/10/04 08:01:46;;;;;;;10.68;4.68;;;;;;;8.09;100.00;100938.19;5091690;28;20032;-64
2022/10/04 08:04:30;;;;;;;11.50;5.63;;;;;;;8.20;100.00;100937.19;5091922;28;20023;-64
2022/10/04 08:06:59;;;;;;;13.95;5.45;;;;;;;8.28;100.00;100927.56;5091989;28;20051;-64
2022/10/04 08:09:40;;;;;;;14.88;5.93;;;;;;;8.40;100.00;100933.56;5091858;28;20035;-60
2022/10/04 08:12:44;;;;;;;12.60;5.43;;;;;;;8.49;100.00;100923.91;5091425;28;20040;-64
2022/10/04 08:15:13;;;;;;;11.52;5.78;;;;;;;8.57;100.00;100924.88;5091749;28;20047;-60
2022/10/04 08:17:50;;;;;;;9.32;5.25;;;;;;;8.68;100.00;100926.53;5091855;28;20036;-60
2022/10/04 08:20:40;;;;;;;16.80;5.82;;;;;;;8.79;100.00;100934.28;5091557;28;20031;-62
2022/10/04 08:23:14;;;;;;;9.50;5.53;;;;;;;8.86;100.00;100934.56;5091712;28;20431;-63
2022/10/04 08:25:54;;;;;;;13.48;6.65;;;;;;;8.95;100.00;100939.84;5091412;28;20111;-63
2022/10/04 08:31:43;;;;;;;8.55;4.90;;;;;;;9.21;100.00;100942.66;5091161;28;20039;-63
2022/10/04 08:34:41;;;;;;;12.07;5.20;;;;;;;9.30;100.00;100938.28;5091506;28;20469;-62
2022/10/04 08:37:45;;;;;;;11.73;5.65;;;;;;;9.42;100.00;100944.22;5091681;28;20467;-62
2022/10/04 08:40:29;;;;;;;11.48;5.15;;;;;;;9.50;100.00;100945.16;5091488;28;20089;-62
2022/10/04 08:43:43;;;;;;;8.23;4.90;;;;;;;9.71;100.00;100949.34;5091573;28;20036;-64
2022/10/04 08:46:30;;;;;;;9.27;5.05;;;;;;;9.79;100.00;100944.97;5044335;28;20051;-62
2022/10/04 08:49:14;;;;;;;10.43;5.63;;;;;;;9.95;100.00;100946.94;5091561;28;20039;-61
2022/10/04 08:51:57;;;;;;;12.25;5.40;;;;;;;10.12;100.00;100947.94;5091125;28;20473;-62
2022/10/04 08:54:47;;;;;;;11.45;5.53;;;;;;;10.25;100.00;100940.44;5091464;28;20040;-63
2022/10/04 08:57:34;;;;;;;11.40;5.35;;;;;;;10.46;100.00;100945.41;5091343;28;20496;-63
2022/10/04 09:00:30;;;;;;;11.30;5.38;;;;;;;10.57;100.00;100950.50;5091189;28;20043;-63
2022/10/04 09:03:10;;;;;;;12.60;6.43;;;;;;;10.93;100.00;100934.38;5091333;28;20500;-61
2022/10/04 09:05:57;;;;;;;11.32;5.43;;;;;;;11.22;100.00;100928.69;5091591;28;20126;-63
2022/10/04 09:08:53;;;;;;;10.45;6.00;;;;;;;11.33;100.00;100931.03;5092985;28;20043;-63
2022/10/04 09:12:04;;;;;;;10.13;5.25;;;;;;;11.44;100.00;100929.91;5094628;28;20081;-60
2022/10/04 09:14:35;;;;;;;8.77;4.85;;;;;;;11.64;100.00;100925.97;5052150;28;20045;-60
2022/10/04 09:17:32;;;;;;;9.40;5.40;;;;;;;11.77;100.00;100927.31;5087507;28;20126;-62
2022/10/04 09:20:20;;;;;;;9.05;5.18;;;;;;;11.91;100.00;100929.38;5094767;28;20032;-60
2022/10/04 09:23:10;;;;;;;15.18;5.78;;;;;;;12.00;100.00;100931.06;5095071;28;20036;-62
2022/10/04 09:25:46;;;;;;;12.82;5.68;;;;;;;12.23;100.00;100928.56;5093502;28;20460;-61
2022/10/04 09:28:27;;;;;;;10.45;5.28;;;;;;;12.35;100.00;100932.56;5094708;28;20036;-62
2022/10/04 09:31:10;;;;;;;11.05;5.10;;;;;;;12.48;100.00;100921.34;5094314;28;20047;-60
2022/10/04 09:33:56;;;;;;;9.77;5.22;;;;;;;12.66;98.96;100923.84;5094598;28;20032;-61
2022/10/04 09:36:40;;;;;;;9.93;5.82;;;;;;;12.70;100.00;100920.63;5094358;28;20063;-62
2022/10/04 09:39:49;;;;;;;13.13;5.60;;;;;;;12.96;96.22;100915.03;5094437;28;20036;-63
2022/10/04 09:42:32;;;;;;;12.07;5.15;;;;;;;13.35;91.72;100924.13;5051498;28;20040;-61
2022/10/04 09:45:28;;;;;;;8.98;5.45;;;;;;;13.84;90.69;100920.16;5090405;28;20044;-64
2022/10/04 09:48:16;;;;;;;7.10;4.47;;;;;;;14.45;87.08;100928.19;5094400;28;20032;-63
2022/10/04 09:51:14;;;;;;;12.52;6.05;;;;;;;14.73;85.68;100927.59;5093915;28;20040;-61
2022/10/04 09:53:57;;;;;;;14.20;6.65;;;;;;;15.61;81.01;100927.53;5094237;28;20040;-63
2022/10/04 09:56:40;;;;;;;10.05;5.15;;;;;;;16.32;78.52;100927.63;5094204;28;20040;-64
2022/10/04 09:59:22;;;;;;;10.75;5.88;;;;;;;16.27;78.63;100925.50;5094018;28;20043;-61
2022/10/04 10:01:59;;;;;;;14.38;6.22;;;;;;;16.81;74.36;100919.50;5093848;28;20071;-65
2022/10/04 10:04:48;;;;;;;12.07;6.15;;;;;;;17.26;72.89;100927.19;5092781;28;20047;-62
2022/10/04 10:07:51;;;;;;;9.38;5.70;;;;;;;17.81;68.38;100923.50;5094298;28;20051;-60
2022/10/04 10:13:39;;;;;;;6.57;4.63;;;;;;;17.97;68.76;100916.88;5094471;28;20051;-62
2022/10/04 10:16:24;;;;;;;9.45;4.68;;;;;;;18.37;70.36;100911.50;5093786;28;20760;-63
2022/10/04 10:19:18;;;;;;;8.25;5.15;;;;;;;18.74;66.42;100920.81;5093306;28;20432;-64
2022/10/04 10:21:54;;;;;;;8.88;5.03;;;;;;;19.02;61.60;100908.91;5093426;28;20036;-64
2022/10/04 10:24:57;;;;;;;7.55;4.05;;;;;;;19.49;58.44;100918.47;5093553;28;20491;-62
2022/10/04 10:27:44;;;;;;;9.20;5.13;;;;;;;19.64;59.80;100920.94;5093602;28;20028;-65
2022/10/04 10:31:08;;;;;;;6.32;4.40;;;;;;;20.45;56.61;100920.19;5093375;28;20043;-63
2022/10/04 10:34:04;;;;;;;7.03;4.35;;;;;;;20.81;56.38;100912.13;5070471;28;20188;-62
2022/10/04 10:36:51;;;;;;;6.35;3.72;;;;;;;21.26;55.79;100917.25;5102907;22;20090;-65
2022/10/04 10:39:50;;;;;;;7.28;4.82;;;;;;;21.28;51.75;100911.59;5093066;28;20089;-64
2022/10/04 10:42:34;;;;;;;7.35;4.55;;;;;;;19.78;56.96;100904.44;5092850;28;20024;-65
2022/10/04 10:45:03;;;;;;;8.43;4.20;;;;;;;20.92;56.33;100898.88;5092689;28;20186;-65
2022/10/04 10:47:51;;;;;;;9.70;4.70;;;;;;;21.18;52.55;100903.97;5092287;28;20047;-64
2022/10/04 10:50:57;;;;;;;7.43;3.45;;;;;;;21.83;51.01;100889.78;5092570;28;20040;-64
2022/10/04 10:53:41;;;;;;;6.35;3.75;;;;;;;22.84;49.93;100888.69;5086955;28;20087;-64
2022/10/04 10:56:18;;;;;;;5.07;3.30;;;;;;;21.56;53.23;100890.16;5054399;28;20116;-64
2022/10/04 10:58:56;;;;;;;5.05;3.17;;;;;;;20.49;57.72;100883.50;5073364;28;20100;-63
2022/10/04 11:01:46;;;;;;;5.07;3.17;;;;;;;19.88;58.11;100876.06;5083257;28;20119;-64
2022/10/04 11:04:32;;;;;;;6.50;3.78;;;;;;;20.36;57.01;100873.63;5080239;28;20352;-61
2022/10/04 11:07:23;;;;;;;6.85;3.60;;;;;;;21.47;54.91;100875.31;5071979;28;20071;-63
2022/10/04 11:10:20;;;;;;;5.60;3.25;;;;;;;21.97;52.94;100876.84;5071697;28;20063;-63
2022/10/04 11:13:04;;;;;;;5.82;3.28;;;;;;;20.80;56.30;100874.44;5071921;28;20389;-64
2022/10/04 11:15:50;;;;;;;4.80;3.50;;;;;;;20.29;57.51;100876.38;5036905;28;20113;-64
2022/10/04 11:18:49;;;;;;;5.68;3.13;;;;;;;20.83;58.29;100874.81;5072459;28;20055;-64
2022/10/04 11:21:38;;;;;;;3.95;2.70;;;;;;;21.02;55.42;100874.81;5071199;28;20111;-64
2022/10/04 11:24:22;;;;;;;5.00;3.22;;;;;;;21.96;51.76;100859.75;5071646;28;20032;-64
2022/10/04 11:27:27;;;;;;;6.07;3.00;;;;;;;22.50;50.21;100860.53;5071581;28;20481;-63
2022/10/04 11:30:12;;;;;;;4.28;2.78;;;;;;;22.25;50.57;100866.19;5079574;28;20082;-64
2022/10/04 11:32:59;;;;;;;4.38;3.30;;;;;;;22.68;49.07;100860.38;5073642;28;20056;-63
2022/10/04 11:36:07;;;;;;;5.03;3.03;;;;;;;23.26;47.33;100861.31;5091365;28;20119;-64
2022/10/04 11:39:01;;;;;;;4.53;2.60;;;;;;;24.00;46.87;100851.28;5088515;28;20427;-63
2022/10/04 11:42:16;;;;;;;3.70;2.67;;;;;;;23.06;48.21;100855.50;5091097;28;20035;-63
2022/10/04 11:45:07;;;;;;;4.35;3.30;;;;;;;22.85;48.72;100846.06;5037089;28;20049;-63
2022/10/04 11:47:47;;;;;;;5.38;3.28;;;;;;;22.85;48.33;100849.59;5091833;28;20507;-63
2022/10/04 11:50:37;;;;;;;6.55;3.50;;;;;;;23.45;47.17;100849.19;5090950;28;20036;-63
2022/10/04 11:53:26;;;;;;;4.80;3.13;;;;;;;22.96;47.21;100846.06;5092150;28;20358;-64
2022/10/04 11:56:15;;;;;;;4.50;3.28;;;;;;;23.28;47.80;100851.06;5091401;28;20096;-63
2022/10/04 11:59:17;;;;;;;4.93;3.47;;;;;;;22.77;48.27;100847.28;5091532;28;20051;-61
2022/10/04 12:02:09;;;;;;;7.38;3.53;;;;;;;23.14;48.41;100850.50;5090770;28;20058;-60
2022/10/04 12:05:00;;;;;;;4.43;3.40;;;;;;;24.28;45.73;100838.63;5067800;28;20055;-61
2022/10/04 12:07:55;;;;;;;5.15;3.17;;;;;;;24.34;44.16;100832.22;5091426;28;20073;-59
2022/10/04 12:10:26;;;;;;;4.38;3.22;;;;;;;24.66;44.05;100831.56;5091428;28;20480;-62
2022/10/04 12:12:52;;;;;;;5.63;3.85;;;;;;;24.83;42.79;100838.59;5074047;28;20051;-62
2022/10/04 12:15:21;;;;;;;5.75;2.92;;;;;;;25.39;42.41;100833.00;5091320;28;20043;-61
2022/10/04 12:18:04;;;;;;;5.95;3.75;;;;;;;24.88;41.47;100824.22;5091445;28;20048;-62
2022/10/04 12:21:01;;;;;;;5.75;3.33;;;;;;;25.40;41.27;100837.38;5091097;28;20040;-62
2022/10/04 12:23:35;;;;;;;5.80;3.47;;;;;;;25.65;41.02;100843.06;5091341;28;20036;-63
2022/10/04 12:26:19;;;;;;;5.85;3.72;;;;;;;25.49;39.97;100827.63;5091315;28;20576;-63
2022/10/04 12:29:20;;;;;;;6.07;3.53;;;;;;;25.25;40.81;100824.41;5091017;28;20194;-64
2022/10/04 12:32:02;;;;;;;5.00;3.50;;;;;;;25.78;39.01;100822.75;5090127;28;20052;-65
2022/10/04 12:34:53;;;;;;;5.20;3.67;;;;;;;25.76;40.31;100816.75;5091263;28;20131;-65
2022/10/04 12:37:27;;;;;;;4.22;3.13;;;;;;;25.47;40.93;100810.72;5091343;28;20085;-65
2022/10/04 12:40:14;;;;;;;5.13;3.88;;;;;;;26.03;39.57;100802.22;5091177;28;20036;-64
2022/10/04 12:43:03;;;;;;;4.63;3.75;;;;;;;25.36;41.08;100803.50;5092211;28;20027;-65
2022/10/04 12:45:33;;;;;;;4.50;3.15;;;;;;;25.32;41.49;100803.22;5095393;28;20062;-65
2022/10/04 12:48:09;;;;;;;7.53;3.60;;;;;;;25.71;40.23;100798.38;5095167;28;20445;-64
2022/10/04 12:50:53;;;;;;;4.22;3.40;;;;;;;25.91;39.90;100803.22;5094766;28;20535;-66
2022/10/04 12:53:48;;;;;;;4.53;3.15;;;;;;;25.74;40.70;100801.69;5077230;28;20051;-65
2022/10/04 12:56:41;;;;;;;6.75;3.83;;;;;;;26.63;39.17;100806.41;5095319;28;20469;-65
2022/10/04 12:59:33;;;;;;;5.88;3.67;;;;;;;26.65;37.89;100805.03;5074905;28;20032;-66
2022/10/04 13:02:06;;;;;;;5.32;3.55;;;;;;;25.78;40.16;100803.66;5056455;28;20334;-65
2022/10/04 13:04:38;;;;;;;6.35;3.60;;;;;;;27.19;38.29;100799.25;5074789;28;20032;-66
2022/10/04 13:07:22;;;;;;;5.43;3.28;;;;;;;26.97;37.59;100793.13;5074638;28;20036;-66
2022/10/04 13:10:06;;;;;;;4.45;3.53;;;;;;;26.47;38.78;100792.69;5074736;28;20093;-53
2022/10/04 13:13:02;;;;;;;5.35;3.50;;;;;;;25.97;38.47;100793.16;5074415;28;20033;-53
2022/10/04 13:15:49;;;;;;;6.78;3.55;;;;;;;25.93;39.46;100781.13;5074476;28;20079;-61
2022/10/04 13:18:30;;;;;;;4.90;3.53;;;;;;;26.69;37.74;100783.50;5088180;28;20024;-49
2022/10/04 13:21:02;;;;;;;5.18;3.58;;;;;;;26.35;38.46;100788.50;5094488;28;20132;-54
2022/10/04 13:23:50;;;;;;;5.13;3.05;;;;;;;26.70;38.29;100791.41;5094832;28;20035;-55
2022/10/04 13:26:32;;;;;;;4.95;3.50;;;;;;;26.49;39.17;100786.94;5094529;28;20098;-52
2022/10/04 13:29:11;;;;;;;5.05;3.47;;;;;;;24.50;41.66;100778.78;5094791;28;20036;-54
2022/10/04 13:32:01;;;;;;;4.82;3.13;;;;;;;24.69;43.39;100780.13;5076208;28;20072;-53
2022/10/04 13:34:52;;;;;;;5.88;3.50;;;;;;;24.45;43.19;100776.84;5095143;28;20109;-51
2022/10/04 13:37:20;;;;;;;5.45;3.33;;;;;;;23.54;46.09;100779.78;5098827;28;20416;-65
2022/10/04 13:40:11;;;;;;;6.22;3.13;;;;;;;23.53;45.64;100775.38;5094508;28;20036;-64
2022/10/04 13:42:58;;;;;;;6.63;3.20;;;;;;;23.24;46.68;100781.94;5094524;28;20489;-65
2022/10/04 13:45:42;;;;;;;6.03;3.40;;;;;;;23.04;46.42;100770.69;5094392;28;20040;-65
2022/10/04 13:48:21;;;;;;;9.00;3.83;;;;;;;22.34;48.28;100771.69;5076314;28;20059;-65
2022/10/04 13:51:05;;;;;;;5.55;3.10;;;;;;;22.09;49.00;100766.50;5095190;28;20510;-65
2022/10/04 13:57:05;;;;;;;3.92;2.90;;;;;;;21.25;50.96;100763.84;5094494;28;20040;-64
2022/10/04 13:59:43;;;;;;;4.30;3.35;;;;;;;20.88;53.21;100759.59;5094109;28;20039;-50
2022/10/04 14:02:28;;;;;;;5.20;3.05;;;;;;;20.63;54.82;100760.53;5094132;28;20032;-53
2022/10/04 14:05:03;;;;;;;3.75;2.47;;;;;;;20.62;55.53;100761.59;5093987;28;20035;-67
2022/10/04 14:07:40;;;;;;;3.85;2.78;;;;;;;20.45;58.26;100757.84;5093721;28;20489;-66
2022/10/04 14:10:37;;;;;;;5.22;2.72;;;;;;;20.40;55.93;100760.34;5075665;28;20114;-66
2022/10/04 14:13:36;;;;;;;3.83;2.70;;;;;;;20.32;57.34;100751.47;5093612;28;20044;-66
2022/10/04 14:16:40;;;;;;;5.53;2.92;;;;;;;20.16;58.46;100743.16;5093699;28;20093;-65
2022/10/04 14:19:23;;;;;;;4.45;3.05;;;;;;;19.92;59.98;100739.44;5090970;28;20024;-64
2022/10/04 14:22:07;;;;;;;3.50;2.75;;;;;;;20.03;58.31;100734.13;5068662;28;20477;-64
2022/10/04 14:24:35;;;;;;;4.90;3.20;;;;;;;19.75;59.58;100737.28;5076423;28;20496;-64
2022/10/04 14:27:19;;;;;;;3.65;2.58;;;;;;;19.91;58.77;100735.91;5086995;28;20546;-64
2022/10/04 14:30:02;;;;;;;4.07;2.85;;;;;;;19.95;58.85;100734.41;5085518;28;20031;-64
2022/10/04 14:32:59;;;;;;;7.88;3.33;;;;;;;19.77;58.94;100723.56;5091261;28;20393;-64
2022/10/04 14:35:51;;;;;;;4.55;2.95;;;;;;;19.42;59.48;100718.63;5082343;28;20039;-64
2022/10/04 14:38:51;;;;;;;4.75;3.15;;;;;;;19.26;60.28;100711.06;5092870;28;20059;-64
2022/10/04 14:41:51;;;;;;;3.95;3.13;;;;;;;19.14;61.55;100723.59;5080965;28;20035;-63
2022/10/04 14:44:34;;;;;;;4.30;2.85;;;;;;;19.11;61.80;100718.66;5092831;28;20065;-64
2022/10/04 14:47:10;;;;;;;3.83;2.83;;;;;;;19.15;63.14;100717.97;5078491;28;20442;-63
2022/10/04 14:49:55;;;;;;;4.72;2.78;;;;;;;19.12;62.86;100717.59;5081874;28;20040;-64
2022/10/04 14:52:59;;;;;;;3.78;2.80;;;;;;;19.12;63.79;100726.53;5089718;28;20527;-64
2022/10/04 14:55:53;;;;;;;4.28;2.50;;;;;;;19.19;64.69;100724.63;5001196;28;20109;-63
2022/10/04 14:58:33;;;;;;;3.50;2.33;;;;;;;19.17;64.96;100712.34;5088947;28;20040;-63
2022/10/04 15:01:10;;;;;;;3.40;2.45;;;;;;;19.09;65.83;100713.44;5078083;28;20036;-64
2022/10/04 15:03:39;;;;;;;;;;;;;;;19.13;67.63;100711.97;5092996;28;20051;-64
2022/10/04 15:06:09;;;;;;;4.00;2.47;;;;;;;19.04;67.64;100705.19;5076612;28;19912;-64
2022/10/04 15:08:57;;;;;;;4.75;2.97;;;;;;;18.92;67.45;100709.63;5073870;28;20386;-63
2022/10/04 15:11:52;;;;;;;4.15;3.10;;;;;;;18.93;66.95;100706.72;5092034;28;20032;-63
2022/10/04 15:14:39;;;;;;;2.85;2.55;;;;;;;18.87;67.57;100712.97;5092590;28;20081;-64
2022/10/04 15:17:25;;;;;;;5.32;3.00;;;;;;;18.91;68.18;100713.38;5092564;28;20131;-64
2022/10/04 15:20:05;;;;;;;5.10;2.83;;;;;;;18.88;68.68;100711.09;5074356;28;20040;-64
2022/10/04 15:22:41;;;;;;;3.95;2.55;;;;;;;18.73;68.16;100708.69;5092246;28;20076;-64
2022/10/04 15:25:38;;;;;;;6.70;2.97;;;;;;;18.72;69.34;100704.34;5092405;28;20044;-64
2022/10/04 15:28:14;;;;;;;5.35;3.05;;;;;;;18.78;68.11;100702.63;5086413;28;20139;-63
2022/10/04 15:30:49;;;;;;;6.78;2.80;;;;;;;18.69;68.55;100702.88;5092026;28;20089;-63
2022/10/04 15:33:31;;;;;;;5.75;2.90;;;;;;;18.77;68.25;100692.88;5092298;28;20047;-64
2022/10/04 15:35:57;;;;;;;5.50;2.90;;;;;;;18.74;68.92;100694.16;5092260;28;20040;-64
2022/10/04 15:38:38;;;;;;;6.03;3.00;;;;;;;18.73;68.19;100691.69;5092133;28;20039;-63
2022/10/04 15:41:41;;;;;;;4.70;2.60;;;;;;;18.74;68.69;100687.94;5091904;28;20031;-63
2022/10/04 15:44:17;;;;;;;3.92;2.65;;;;;;;18.67;67.39;100688.78;5090001;28;20046;-64
2022/10/04 15:47:14;;;;;;;5.97;2.83;;;;;;;18.64;68.41;100680.25;5088739;28;20111;-64
2022/10/04 15:49:55;;;;;;;3.42;2.50;;;;;;;18.67;67.76;100685.28;5091783;28;20036;-64
2022/10/04 15:52:46;;;;;;;5.15;2.80;;;;;;;18.51;67.50;100683.03;5091397;28;20044;-64
2022/10/04 15:55:24;;;;;;;3.95;2.50;;;;;;;18.52;68.94;100677.44;5091408;28;20069;-63
2022/10/04 15:58:44;;;;;;;4.18;3.25;;;;;;;18.43;68.93;100673.31;5091811;28;20036;-63
2022/10/04 16:01:42;;;;;;;3.08;2.10;;;;;;;18.44;70.45;100674.97;5090934;28;20038;-64
2022/10/04 16:04:39;;;;;;;4.18;2.88;;;;;;;18.44;70.51;100670.41;5051003;28;20043;-64
2022/10/04 16:07:21;;;;;;;4.93;2.92;;;;;;;18.39;70.27;100674.81;5091522;28;20032;-64
2022/10/04 16:10:06;;;;;;;4.20;2.63;;;;;;;18.37;70.40;100676.88;5091596;28;20049;-63
2022/10/04 16:12:32;;;;;;;4.47;2.58;;;;;;;18.31;71.16;100678.53;5091271;28;20384;-64
2022/10/04 16:15:19;;;;;;;3.67;2.30;;;;;;;18.24;73.15;100677.75;5091447;28;20030;-63
2022/10/04 16:18:04;;;;;;;;;;;;;;;18.10;74.92;100668.03;5091920;28;20043;-63
2022/10/04 16:20:39;;;;;;;3.53;2.80;;;;;;;17.94;78.25;100673.91;5090637;28;19912;-64
2022/10/04 16:23:34;;;;;;;4.13;2.45;;;;;;;17.84;79.21;100685.13;5091478;28;20415;-64
2022/10/04 16:26:12;;;;;;;3.03;2.65;;;;;;;17.76;80.46;100688.03;5091429;28;20031;-64
2022/10/04 16:28:48;;;;;;;4.53;3.10;;;;;;;17.63;80.79;100691.53;5091434;28;20396;-64
2022/10/04 16:31:19;;;;;;;5.47;2.85;;;;;;;17.55;82.10;100689.91;5072308;28;20047;-63
2022/10/04 16:34:14;;;;;;;3.20;2.38;;;;;;;17.47;83.37;100694.63;5090801;28;20036;-63
2022/10/04 16:37:15;;;;;;;4.55;2.58;;;;;;;17.41;83.60;100692.78;5112173;23;20093;-61
2022/10/04 16:40:01;;;;;;;5.57;2.55;;;;;;;17.30;84.97;100691.53;5035018;28;20102;-62
2022/10/04 16:43:02;;;;;;;4.18;2.90;;;;;;;17.14;86.68;100694.63;5050861;28;20044;-63
2022/10/04 16:45:46;;;;;;;4.78;2.75;;;;;;;16.96;88.61;100697.94;5033428;28;20389;-64
2022/10/04 16:48:39;;;;;;;4.97;2.97;;;;;;;16.62;90.88;100696.13;5037908;28;20508;-62
2022/10/04 16:51:17;;;;;;;4.97;2.88;;;;;;;16.40;92.79;100692.75;5030837;28;20037;-64
2022/10/04 16:54:04;;;;;;;;;;;;;;;16.20;94.02;100695.34;5031776;28;20474;-64
2022/10/04 16:56:57;;;;;;;4.95;2.28;;;;;;;16.01;94.88;100688.81;5031396;28;20293;-63
2022/10/04 16:59:37;;;;;;;6.85;3.65;;;;;;;15.95;96.31;100684.25;5031114;28;20110;-63
2022/10/04 17:02:40;;;;;;;5.75;2.70;;;;;;;15.82;97.19;100684.16;5030780;28;20037;-64
2022/10/04 17:05:35;;;;;;;4.75;3.40;;;;;;;15.81;98.11;100675.28;5031091;28;20506;-65
2022/10/04 17:08:15;;;;;;;5.47;3.17;;;;;;;15.66;98.66;100677.25;5030959;28;20030;-64
2022/10/04 17:11:13;;;;;;;5.00;2.85;;;;;;;15.44;100.00;100665.69;5030706;28;20029;-63
2022/10/04 17:14:15;;;;;;;5.40;3.75;;;;;;;15.39;100.00;100658.22;5031090;28;20044;-64